Time;durP1;ratioP1;P1;durP2;ratioP2;P2;SDS_P1;SDS_P2;PMS_P1;PMS_P2;Temp;Humidity;BMP_temperature;BMP_pressure;BME280_temperature;BME280_humidity;BME280_pressure;Samples;Min_cycle;Max_cycle;Signal;HPM_P1;HPM_P2
2023/05/01 00:00:38;;;;;;;4.43;3.97;;;9.90;99.90;;;;;;5047883;28;20218;-76
2023/05/01 00:03:04;;;;;;;3.90;3.60;;;9.80;99.90;;;;;;5049831;28;20191;-76
2023/05/01 00:05:30;;;;;;;4.25;3.85;;;9.90;99.90;;;;;;5048482;28;20583;-76
2023/05/01 00:07:56;;;;;;;3.63;3.38;;;9.80;99.90;;;;;;5051854;28;20194;-76
2023/05/01 00:10:21;;;;;;;3.80;3.50;;;9.70;99.90;;;;;;5045007;28;20176;-76
2023/05/01 00:12:47;;;;;;;4.28;3.92;;;9.70;99.90;;;;;;5051579;28;20274;-75
2023/05/01 00:15:12;;;;;;;3.85;3.55;;;9.80;99.90;;;;;;5052826;28;20179;-76
2023/05/01 00:17:38;;;;;;;4.68;3.75;;;9.80;99.90;;;;;;5047072;28;20203;-76
2023/05/01 00:20:04;;;;;;;4.05;3.70;;;9.70;99.90;;;;;;5048316;28;20186;-76
2023/05/01 00:22:30;;;;;;;3.80;3.50;;;9.70;99.90;;;;;;5048634;28;20314;-76
2023/05/01 00:24:55;;;;;;;4.05;3.72;;;9.60;99.90;;;;;;5049281;28;20371;-76
2023/05/01 00:27:21;;;;;;;4.32;3.28;;;9.60;99.90;;;;;;5040766;28;20197;-76
2023/05/01 00:29:47;;;;;;;3.83;3.53;;;9.60;99.90;;;;;;5045662;28;20241;-76
2023/05/01 00:32:14;;;;;;;4.18;3.78;;;9.60;99.90;;;;;;5049053;28;20190;-76
2023/05/01 00:34:40;;;;;;;3.70;3.40;;;9.50;99.90;;;;;;5048965;28;21330;-76
2023/05/01 00:37:06;;;;;;;4.05;3.70;;;9.40;99.90;;;;;;5065595;28;20207;-77
2023/05/01 00:39:31;;;;;;;3.95;3.67;;;9.40;99.90;;;;;;5049687;28;20172;-76
2023/05/01 00:41:57;;;;;;;3.90;3.60;;;9.40;99.90;;;;;;5048639;28;20673;-76
2023/05/01 00:44:23;;;;;;;3.65;3.45;;;9.40;99.90;;;;;;5063042;28;20283;-76
2023/05/01 00:46:49;;;;;;;3.70;3.40;;;9.40;99.90;;;;;;5047175;28;20212;-76
2023/05/01 00:49:16;;;;;;;4.15;3.85;;;9.40;99.90;;;;;;5049715;28;20188;-76
2023/05/01 00:51:42;;;;;;;3.90;3.60;;;9.40;99.90;;;;;;5053091;28;20179;-76
2023/05/01 00:54:08;;;;;;;3.88;3.58;;;9.30;99.90;;;;;;5053017;28;20191;-78
2023/05/01 00:56:34;;;;;;;4.05;3.75;;;9.40;99.90;;;;;;5046141;28;20207;-76
2023/05/01 00:59:00;;;;;;;4.43;4.03;;;9.30;99.90;;;;;;5043407;28;20191;-77
2023/05/01 01:01:25;;;;;;;4.47;4.13;;;9.30;99.90;;;;;;5050528;28;20256;-76
2023/05/01 01:03:51;;;;;;;4.50;3.42;;;9.20;99.90;;;;;;5048764;28;20329;-75
2023/05/01 01:06:35;;;;;;;4.07;3.78;;;9.20;99.90;;;;;;5048797;28;20231;-75
2023/05/01 01:09:36;;;;;;;4.35;4.05;;;9.10;99.90;;;;;;5053523;28;20192;-75
2023/05/01 01:12:02;;;;;;;4.00;3.75;;;9.10;99.90;;;;;;5064115;28;20179;-76
2023/05/01 01:14:39;;;;;;;3.95;3.65;;;9.00;99.90;;;;;;5050601;28;20190;-76
2023/05/01 01:17:15;;;;;;;4.70;4.30;;;9.00;99.90;;;;;;5068184;28;20207;-75
2023/05/01 01:20:18;;;;;;;4.55;4.25;;;8.90;99.90;;;;;;5051911;28;20688;-76
2023/05/01 01:23:00;;;;;;;4.20;3.90;;;8.90;99.90;;;;;;5051771;28;20200;-75
2023/05/01 01:25:37;;;;;;;4.45;4.15;;;8.90;99.90;;;;;;5051543;28;20199;-76
2023/05/01 01:28:10;;;;;;;4.40;4.00;;;8.90;99.90;;;;;;5056120;28;20672;-76
2023/05/01 01:31:03;;;;;;;4.53;4.20;;;8.80;99.90;;;;;;5050345;28;20179;-76
2023/05/01 01:33:51;;;;;;;4.78;4.38;;;8.80;99.90;;;;;;5052551;28;20226;-76
2023/05/01 01:36:30;;;;;;;4.45;4.10;;;8.70;99.90;;;;;;5069138;28;20242;-77
2023/05/01 01:39:07;;;;;;;5.00;4.60;;;8.70;99.90;;;;;;5067830;28;20593;-76
2023/05/01 01:41:34;;;;;;;5.22;4.82;;;8.60;99.90;;;;;;5050501;28;20558;-77
2023/05/01 01:44:06;;;;;;;5.63;5.13;;;8.60;99.90;;;;;;5053991;28;20215;-76
2023/05/01 01:46:36;;;;;;;4.72;4.32;;;8.60;99.90;;;;;;5052219;28;20191;-76
2023/05/01 01:49:08;;;;;;;5.30;4.80;;;8.60;99.90;;;;;;5067599;28;20183;-76
2023/05/01 01:51:36;;;;;;;4.93;4.40;;;8.60;99.90;;;;;;5052514;28;20168;-76
2023/05/01 01:54:03;;;;;;;5.32;4.93;;;8.60;99.90;;;;;;5055192;28;20537;-76
2023/05/01 01:56:31;;;;;;;4.78;4.47;;;8.50;99.90;;;;;;5052191;28;20227;-76
2023/05/01 01:59:00;;;;;;;5.40;5.00;;;8.50;99.90;;;;;;5056711;28;20647;-75
2023/05/01 02:01:26;;;;;;;5.60;4.55;;;8.50;99.90;;;;;;5052903;28;20184;-75
2023/05/01 02:03:53;;;;;;;7.53;5.72;;;8.50;99.90;;;;;;5056158;28;20545;-75
2023/05/01 02:06:22;;;;;;;6.88;5.72;;;8.50;99.90;;;;;;5052930;28;20804;-76
2023/05/01 02:08:48;;;;;;;5.82;5.32;;;8.50;99.90;;;;;;5052471;28;20683;-75
2023/05/01 02:11:17;;;;;;;6.25;5.45;;;8.40;99.90;;;;;;5049212;28;20180;-75
2023/05/01 02:13:44;;;;;;;6.88;6.22;;;8.40;99.90;;;;;;5052994;28;20578;-75
2023/05/01 02:16:12;;;;;;;6.57;6.07;;;8.40;99.90;;;;;;5054965;28;20235;-76
2023/05/01 02:18:38;;;;;;;6.60;5.95;;;8.30;99.90;;;;;;5052697;28;20187;-75
2023/05/01 02:21:04;;;;;;;8.10;6.25;;;8.30;99.90;;;;;;5054221;28;20199;-75
2023/05/01 02:23:32;;;;;;;9.65;5.97;;;8.20;99.90;;;;;;5051087;28;20179;-75
2023/05/01 02:26:01;;;;;;;10.15;6.53;;;8.20;99.90;;;;;;5053224;28;20600;-76
2023/05/01 02:28:29;;;;;;;7.03;6.32;;;8.10;99.90;;;;;;5056974;28;20230;-75
2023/05/01 02:30:56;;;;;;;6.55;5.97;;;8.10;99.90;;;;;;5065148;28;20199;-76
2023/05/01 02:33:22;;;;;;;6.78;6.18;;;8.10;99.90;;;;;;5052029;28;20203;-76
2023/05/01 02:35:48;;;;;;;6.70;5.65;;;8.10;99.90;;;;;;5062788;28;20219;-75
2023/05/01 02:38:15;;;;;;;7.90;6.00;;;8.10;99.90;;;;;;5053487;28;20184;-75
2023/05/01 02:40:53;;;;;;;6.70;6.00;;;8.10;99.90;;;;;;5056834;28;20650;-75
2023/05/01 02:43:21;;;;;;;7.13;6.43;;;8.00;99.90;;;;;;5049662;28;20682;-75
2023/05/01 02:45:50;;;;;;;9.07;6.78;;;8.00;99.90;;;;;;5051787;28;20196;-76
2023/05/01 02:48:20;;;;;;;7.57;6.97;;;8.00;99.90;;;;;;5067602;28;20210;-75
2023/05/01 02:50:48;;;;;;;7.82;6.90;;;8.00;99.90;;;;;;5050725;28;20230;-75
2023/05/01 02:53:14;;;;;;;6.95;6.18;;;8.00;99.90;;;;;;5053613;28;20175;-75
2023/05/01 02:55:41;;;;;;;8.02;7.28;;;7.90;99.90;;;;;;5049195;28;20659;-75
2023/05/01 02:58:07;;;;;;;8.25;6.78;;;7.90;99.90;;;;;;5053908;28;20675;-74
2023/05/01 03:00:34;;;;;;;7.47;6.78;;;7.80;99.90;;;;;;5049217;28;20237;-76
2023/05/01 03:03:00;;;;;;;8.73;7.75;;;7.80;99.90;;;;;;5051550;28;20176;-75
2023/05/01 03:05:25;;;;;;;7.85;7.18;;;7.80;99.90;;;;;;5060482;28;20221;-75
2023/05/01 03:07:51;;;;;;;7.88;7.20;;;7.80;99.90;;;;;;5070317;28;20356;-75
2023/05/01 03:10:17;;;;;;;8.63;7.82;;;7.80;99.90;;;;;;5054714;28;20733;-75
2023/05/01 03:12:43;;;;;;;10.93;8.05;;;7.70;99.90;;;;;;5058346;28;20627;-75
2023/05/01 03:15:11;;;;;;;8.85;7.95;;;7.60;99.90;;;;;;5054031;28;20897;-75
2023/05/01 03:17:36;;;;;;;9.20;7.75;;;7.70;99.90;;;;;;5053831;28;20282;-75
2023/05/01 03:20:05;;;;;;;9.30;8.40;;;7.70;99.90;;;;;;5051053;28;20267;-75
2023/05/01 03:22:32;;;;;;;10.05;8.43;;;7.60;99.90;;;;;;5051831;28;20670;-75
2023/05/01 03:24:58;;;;;;;10.05;8.20;;;7.60;99.90;;;;;;5052381;28;20696;-76
2023/05/01 03:27:23;;;;;;;9.00;8.10;;;7.60;99.90;;;;;;5055022;28;20278;-75
2023/05/01 03:29:49;;;;;;;8.95;8.05;;;7.60;99.90;;;;;;5068060;28;20651;-77
2023/05/01 03:32:16;;;;;;;8.73;7.82;;;7.60;99.90;;;;;;5051699;28;20695;-74
2023/05/01 03:34:42;;;;;;;9.63;8.68;;;7.60;99.90;;;;;;5053826;28;20556;-75
2023/05/01 03:37:07;;;;;;;10.20;8.07;;;7.60;99.90;;;;;;5051612;28;20199;-75
2023/05/01 03:39:33;;;;;;;9.43;8.52;;;7.60;99.90;;;;;;5052863;28;20179;-75
2023/05/01 03:41:59;;;;;;;9.25;8.13;;;7.60;99.90;;;;;;5052683;28;20183;-75
2023/05/01 03:44:24;;;;;;;9.70;8.57;;;7.60;99.90;;;;;;5049648;28;20740;-75
2023/05/01 03:46:50;;;;;;;10.88;8.75;;;7.60;99.90;;;;;;5052977;28;20520;-76
2023/05/01 03:49:16;;;;;;;10.60;8.55;;;7.60;99.90;;;;;;5052872;28;20179;-75
2023/05/01 03:51:41;;;;;;;11.98;9.32;;;7.60;99.90;;;;;;5040242;28;20593;-75
2023/05/01 03:54:07;;;;;;;10.18;9.10;;;7.60;99.90;;;;;;5052008;28;20179;-75
2023/05/01 03:56:35;;;;;;;12.93;8.52;;;7.60;99.90;;;;;;5054282;28;20275;-75
2023/05/01 03:59:01;;;;;;;11.07;9.15;;;7.60;99.90;;;;;;5066752;28;20224;-76
2023/05/01 04:01:26;;;;;;;12.98;9.82;;;7.60;99.90;;;;;;5049710;28;20172;-75
2023/05/01 04:03:52;;;;;;;10.63;9.13;;;7.60;99.90;;;;;;5054174;28;20179;-74
2023/05/01 04:06:18;;;;;;;12.02;9.80;;;7.60;99.90;;;;;;5051784;28;20207;-75
2023/05/01 04:08:44;;;;;;;10.30;9.02;;;7.60;99.90;;;;;;5049744;28;20646;-75
2023/05/01 04:11:10;;;;;;;10.82;9.40;;;7.60;99.90;;;;;;5043148;28;20180;-74
2023/05/01 04:13:35;;;;;;;11.15;9.93;;;7.70;99.90;;;;;;5053674;28;20199;-74
2023/05/01 04:16:01;;;;;;;11.25;8.88;;;7.70;99.90;;;;;;5049359;28;20671;-76
2023/05/01 04:18:27;;;;;;;11.02;9.98;;;7.70;99.90;;;;;;5048645;28;20180;-75
2023/05/01 04:20:53;;;;;;;10.60;9.50;;;7.80;99.90;;;;;;5066807;28;20191;-74
2023/05/01 04:23:19;;;;;;;11.75;10.15;;;7.80;99.90;;;;;;5047485;28;20196;-75
2023/05/01 04:25:45;;;;;;;9.82;8.73;;;7.80;99.90;;;;;;5052153;28;20298;-74
2023/05/01 04:28:11;;;;;;;12.07;9.60;;;7.80;99.90;;;;;;5049290;28;20190;-74
2023/05/01 04:30:37;;;;;;;10.93;9.82;;;7.90;99.90;;;;;;5049140;28;20667;-75
2023/05/01 04:33:09;;;;;;;10.55;9.55;;;7.90;99.90;;;;;;5052532;28;20188;-74
2023/05/01 04:35:35;;;;;;;12.25;9.70;;;7.90;99.90;;;;;;5052775;28;20188;-75
2023/05/01 04:38:01;;;;;;;11.00;9.60;;;7.90;99.90;;;;;;5051890;28;20191;-75
2023/05/01 04:40:27;;;;;;;9.98;8.95;;;7.90;99.90;;;;;;5051139;28;20183;-75
2023/05/01 04:42:52;;;;;;;10.07;9.02;;;8.00;99.90;;;;;;5071059;28;20192;-75
2023/05/01 04:45:18;;;;;;;11.10;8.98;;;8.10;99.90;;;;;;5052130;28;20679;-75
2023/05/01 04:47:43;;;;;;;10.73;9.40;;;8.10;99.90;;;;;;5052267;28;20718;-75
2023/05/01 04:50:09;;;;;;;10.75;9.65;;;8.10;99.90;;;;;;5053027;28;20172;-75
2023/05/01 04:52:35;;;;;;;14.48;10.63;;;8.20;99.90;;;;;;5056285;28;20724;-75
2023/05/01 04:55:02;;;;;;;11.32;10.10;;;8.20;99.90;;;;;;5054887;28;20207;-74
2023/05/01 04:57:28;;;;;;;10.05;9.05;;;8.20;99.90;;;;;;5052972;28;20250;-75
2023/05/01 04:59:53;;;;;;;10.70;9.60;;;8.20;99.90;;;;;;5053840;28;20184;-74
2023/05/01 05:02:19;;;;;;;13.30;10.32;;;8.30;99.90;;;;;;5050637;28;20210;-74
2023/05/01 05:04:45;;;;;;;11.32;9.85;;;8.30;99.90;;;;;;5044109;28;20677;-76
2023/05/01 05:07:11;;;;;;;10.95;9.77;;;8.40;99.90;;;;;;5053286;28;20221;-75
2023/05/01 05:09:37;;;;;;;10.93;9.85;;;8.40;99.90;;;;;;5052292;28;20545;-74
2023/05/01 05:12:03;;;;;;;11.90;9.43;;;8.40;99.90;;;;;;5049280;28;20179;-75
2023/05/01 05:14:29;;;;;;;11.07;9.98;;;8.50;99.90;;;;;;5051348;28;20647;-75
2023/05/01 05:16:55;;;;;;;11.02;9.25;;;8.60;99.90;;;;;;5051956;28;20249;-75
2023/05/01 05:19:20;;;;;;;11.23;10.00;;;8.60;99.90;;;;;;5050599;28;20180;-75
2023/05/01 05:21:46;;;;;;;12.43;9.95;;;8.60;99.90;;;;;;5049415;28;20200;-75
2023/05/01 05:24:12;;;;;;;10.93;9.88;;;8.70;99.90;;;;;;5052666;28;20179;-75
2023/05/01 05:26:38;;;;;;;12.23;10.50;;;8.70;99.90;;;;;;5050134;28;20671;-75
2023/05/01 05:29:04;;;;;;;11.00;9.90;;;8.70;99.90;;;;;;5050322;28;20317;-78
2023/05/01 05:31:29;;;;;;;12.30;10.07;;;8.70;99.90;;;;;;5054950;28;20247;-75
2023/05/01 05:33:55;;;;;;;11.77;10.18;;;8.80;99.90;;;;;;5051639;28;20180;-75
2023/05/01 05:36:20;;;;;;;10.63;9.50;;;8.90;99.90;;;;;;5049553;28;20586;-75
2023/05/01 05:38:46;;;;;;;10.77;9.77;;;8.90;99.90;;;;;;5048121;28;20514;-75
2023/05/01 05:41:12;;;;;;;11.13;9.82;;;9.00;99.90;;;;;;5051123;28;20273;-76
2023/05/01 05:43:37;;;;;;;11.90;10.40;;;9.10;99.90;;;;;;5053110;28;20191;-75
2023/05/01 05:46:03;;;;;;;11.73;10.05;;;9.20;99.90;;;;;;5049999;28;20289;-74
2023/05/01 05:48:29;;;;;;;11.35;10.18;;;9.20;99.90;;;;;;5055056;28;20573;-75
2023/05/01 05:50:55;;;;;;;13.75;10.27;;;9.30;99.90;;;;;;5052402;28;20186;-76
2023/05/01 05:53:21;;;;;;;11.15;10.07;;;9.40;99.90;;;;;;5055110;28;20180;-75
2023/05/01 05:55:47;;;;;;;11.57;10.35;;;9.50;99.90;;;;;;5051423;28;20195;-76
2023/05/01 05:58:18;;;;;;;11.05;10.00;;;9.60;99.90;;;;;;5050263;28;20536;-75
2023/05/01 06:00:45;;;;;;;11.50;9.73;;;9.70;99.90;;;;;;5052196;28;20179;-74
2023/05/01 06:03:10;;;;;;;11.05;9.93;;;9.90;99.90;;;;;;5054967;28;20183;-75
2023/05/01 06:05:36;;;;;;;10.15;9.05;;;10.00;99.90;;;;;;5060100;28;20262;-75
2023/05/01 06:08:02;;;;;;;11.07;9.95;;;10.20;99.90;;;;;;5050212;28;20199;-72
2023/05/01 06:10:28;;;;;;;13.05;9.50;;;10.40;99.90;;;;;;5047988;28;20177;-73
2023/05/01 06:12:54;;;;;;;10.75;9.65;;;10.50;99.90;;;;;;5057142;28;20184;-73
2023/05/01 06:15:20;;;;;;;11.98;10.00;;;10.70;99.90;;;;;;5067148;28;20202;-73
2023/05/01 06:17:45;;;;;;;11.15;9.65;;;10.90;99.90;;;;;;5067430;28;20204;-74
2023/05/01 06:20:12;;;;;;;9.90;9.00;;;11.10;99.90;;;;;;5052060;28;20563;-73
2023/05/01 06:22:37;;;;;;;11.18;9.73;;;11.30;99.90;;;;;;5052948;28;20199;-73
2023/05/01 06:25:03;;;;;;;12.32;10.00;;;11.50;99.90;;;;;;5052217;28;20191;-72
2023/05/01 06:27:29;;;;;;;12.00;10.13;;;11.70;99.90;;;;;;5050373;28;20699;-73
2023/05/01 06:29:55;;;;;;;12.27;9.65;;;11.90;99.90;;;;;;5047742;28;20188;-72
2023/05/01 06:32:20;;;;;;;10.50;9.43;;;12.00;99.90;;;;;;5052678;28;20171;-75
2023/05/01 06:34:46;;;;;;;10.48;9.25;;;12.20;99.90;;;;;;5054934;28;22054;-74
2023/05/01 06:37:11;;;;;;;11.32;9.45;;;12.40;99.90;;;;;;5053025;28;20235;-74
2023/05/01 06:39:37;;;;;;;10.88;9.00;;;12.50;99.90;;;;;;5051975;28;20184;-73
2023/05/01 06:42:03;;;;;;;12.63;9.88;;;12.60;99.90;;;;;;5048474;28;20185;-74
2023/05/01 06:44:29;;;;;;;10.82;9.73;;;12.80;99.90;;;;;;5053527;28;20242;-74
2023/05/01 06:46:55;;;;;;;10.88;9.63;;;12.90;99.90;;;;;;5051382;28;20231;-78
2023/05/01 06:49:21;;;;;;;14.20;9.88;;;13.00;99.90;;;;;;5050548;28;20203;-78
2023/05/01 06:51:47;;;;;;;10.25;9.25;;;13.20;99.90;;;;;;5056956;28;20172;-77
2023/05/01 06:54:13;;;;;;;10.93;9.18;;;13.30;99.30;;;;;;5060290;28;20217;-78
2023/05/01 06:56:38;;;;;;;10.43;9.35;;;13.50;99.40;;;;;;5052462;28;20191;-77
2023/05/01 06:59:04;;;;;;;12.85;9.55;;;13.70;98.40;;;;;;5052223;28;20177;-77
2023/05/01 07:01:30;;;;;;;9.40;8.50;;;13.90;96.80;;;;;;5051468;28;20184;-77
2023/05/01 07:03:55;;;;;;;10.82;8.38;;;14.10;96.80;;;;;;5049024;28;20180;-77
2023/05/01 07:06:21;;;;;;;9.40;8.50;;;14.30;96.00;;;;;;5058368;28;20637;-78
2023/05/01 07:08:47;;;;;;;9.63;8.70;;;14.50;95.80;;;;;;5054477;28;20194;-78
2023/05/01 07:11:13;;;;;;;9.23;8.32;;;14.70;94.90;;;;;;5051175;28;20535;-78
2023/05/01 07:13:39;;;;;;;8.50;7.70;;;14.80;94.60;;;;;;5055940;28;20187;-78
2023/05/01 07:16:05;;;;;;;9.20;7.70;;;14.90;94.40;;;;;;5058523;28;20207;-78
2023/05/01 07:18:31;;;;;;;7.90;7.20;;;15.10;93.50;;;;;;5068090;28;20178;-78
2023/05/01 07:20:57;;;;;;;8.05;7.30;;;15.00;91.20;;;;;;5050555;28;20302;-78
2023/05/01 07:23:24;;;;;;;7.88;6.65;;;15.00;93.00;;;;;;5072486;28;20176;-78
2023/05/01 07:25:49;;;;;;;8.45;6.03;;;15.20;92.60;;;;;;5050600;28;20249;-78
2023/05/01 07:28:18;;;;;;;5.53;5.03;;;15.40;91.50;;;;;;5055050;28;20225;-78
2023/05/01 07:30:43;;;;;;;4.57;4.13;;;15.60;91.80;;;;;;5057322;28;20202;-78
2023/05/01 07:33:10;;;;;;;4.35;3.97;;;15.80;89.40;;;;;;5055259;28;20172;-78
2023/05/01 07:35:36;;;;;;;4.57;4.18;;;16.00;90.20;;;;;;5053581;28;20179;-78
2023/05/01 07:38:01;;;;;;;4.15;3.83;;;16.30;87.20;;;;;;5052085;28;20200;-80
2023/05/01 07:40:27;;;;;;;6.10;4.57;;;16.50;86.10;;;;;;5053788;28;20179;-78
2023/05/01 07:42:53;;;;;;;4.20;3.80;;;16.60;86.50;;;;;;5059413;28;20195;-79
2023/05/01 07:45:18;;;;;;;4.30;3.90;;;16.80;85.30;;;;;;5052160;28;20239;-76
2023/05/01 07:47:44;;;;;;;4.15;3.60;;;16.90;84.40;;;;;;5055184;28;20207;-79
2023/05/01 07:50:11;;;;;;;4.40;3.72;;;16.90;83.40;;;;;;5054847;28;20195;-79
2023/05/01 07:52:37;;;;;;;4.30;4.00;;;17.00;82.50;;;;;;5053202;28;20214;-79
2023/05/01 07:55:04;;;;;;;4.18;3.88;;;17.20;82.50;;;;;;5058818;28;20176;-78
2023/05/01 07:57:32;;;;;;;3.28;3.05;;;17.40;80.40;;;;;;5045628;28;20199;-78
2023/05/01 07:59:57;;;;;;;3.45;3.15;;;17.50;78.50;;;;;;5057784;28;20175;-79
2023/05/01 08:02:23;;;;;;;3.83;3.35;;;17.30;78.70;;;;;;5046819;28;20242;-78
2023/05/01 08:04:49;;;;;;;3.40;3.10;;;17.40;78.20;;;;;;5049423;28;20204;-78
2023/05/01 08:07:14;;;;;;;3.58;3.28;;;17.50;77.10;;;;;;5049789;28;20230;-78
2023/05/01 08:09:40;;;;;;;4.95;3.42;;;17.60;76.00;;;;;;5053297;28;20685;-78
2023/05/01 08:12:05;;;;;;;4.18;3.38;;;17.60;76.90;;;;;;5052842;28;20176;-79
2023/05/01 08:14:31;;;;;;;4.00;3.08;;;17.50;75.50;;;;;;5054527;28;20210;-78
2023/05/01 08:16:57;;;;;;;3.08;2.88;;;17.40;76.10;;;;;;5050942;28;20210;-78
2023/05/01 08:19:22;;;;;;;3.58;3.28;;;17.40;75.70;;;;;;5050393;28;20182;-78
2023/05/01 08:21:48;;;;;;;4.53;3.72;;;17.40;76.90;;;;;;5046411;28;20206;-78
2023/05/01 08:24:13;;;;;;;3.42;3.22;;;17.50;76.50;;;;;;5050785;28;20187;-79
2023/05/01 08:26:39;;;;;;;3.70;3.40;;;17.70;76.30;;;;;;5049421;28;20679;-77
2023/05/01 08:29:04;;;;;;;3.58;3.25;;;17.80;75.70;;;;;;5052927;28;20206;-78
2023/05/01 08:31:30;;;;;;;3.22;3.03;;;18.10;76.20;;;;;;5055092;28;20175;-79
2023/05/01 08:33:56;;;;;;;3.65;3.17;;;18.30;76.10;;;;;;5047517;28;20561;-78
2023/05/01 08:36:21;;;;;;;3.70;3.38;;;18.50;75.70;;;;;;5054995;28;20195;-79
2023/05/01 08:38:47;;;;;;;5.32;3.40;;;18.80;75.10;;;;;;5049450;28;20677;-78
2023/05/01 08:41:21;;;;;;;3.97;3.58;;;19.00;73.00;;;;;;5048285;28;20188;-79
2023/05/01 08:43:47;;;;;;;3.33;3.13;;;18.70;74.10;;;;;;5050920;28;20195;-78
2023/05/01 08:46:20;;;;;;;3.83;3.42;;;18.50;74.20;;;;;;5054765;28;20199;-79
2023/05/01 08:48:47;;;;;;;3.70;3.30;;;18.50;74.20;;;;;;5048391;28;20172;-78
2023/05/01 08:51:16;;;;;;;3.47;3.22;;;18.70;74.30;;;;;;5051555;28;20176;-78
2023/05/01 08:53:43;;;;;;;3.42;3.15;;;18.90;74.80;;;;;;5045672;28;20176;-79
2023/05/01 08:56:12;;;;;;;3.33;3.13;;;19.00;71.70;;;;;;5048801;28;20208;-78
2023/05/01 08:58:40;;;;;;;3.00;2.70;;;19.10;72.20;;;;;;5065953;28;20268;-79
2023/05/01 09:01:06;;;;;;;3.20;2.95;;;19.30;71.30;;;;;;5054971;28;20189;-79
2023/05/01 09:03:32;;;;;;;3.10;2.90;;;19.60;71.20;;;;;;5053286;28;20259;-78
2023/05/01 09:06:01;;;;;;;3.15;2.90;;;19.70;71.80;;;;;;5053396;28;20915;-79
2023/05/01 09:08:26;;;;;;;2.95;2.47;;;19.60;72.50;;;;;;5045777;28;20288;-79
2023/05/01 09:10:55;;;;;;;3.15;2.58;;;19.80;72.30;;;;;;5049436;28;20291;-79
2023/05/01 09:13:21;;;;;;;3.83;2.97;;;19.80;69.60;;;;;;5051477;28;20245;-79
2023/05/01 09:15:46;;;;;;;3.40;3.10;;;19.90;70.50;;;;;;5052709;28;20180;-79
2023/05/01 09:18:12;;;;;;;2.92;2.72;;;20.00;70.00;;;;;;5054765;28;20184;-79
2023/05/01 09:20:38;;;;;;;2.92;2.60;;;20.20;68.50;;;;;;5053864;28;20184;-78
2023/05/01 09:23:03;;;;;;;2.92;2.72;;;20.50;67.70;;;;;;5053631;28;20191;-80
2023/05/01 09:25:30;;;;;;;3.33;3.05;;;20.80;68.20;;;;;;5058538;28;20207;-81
2023/05/01 09:27:56;;;;;;;4.05;2.92;;;21.10;65.90;;;;;;5069092;28;20671;-80
2023/05/01 09:30:33;;;;;;;3.45;3.25;;;21.10;65.50;;;;;;5049990;28;20251;-81
2023/05/01 09:33:08;;;;;;;3.38;3.17;;;21.20;65.40;;;;;;5071571;28;20589;-79
2023/05/01 09:36:04;;;;;;;3.08;2.83;;;21.50;65.90;;;;;;5054368;28;20669;-79
2023/05/01 09:38:29;;;;;;;3.08;2.88;;;21.70;64.50;;;;;;5061383;28;20195;-79
2023/05/01 09:41:03;;;;;;;3.58;3.05;;;21.70;63.90;;;;;;5051268;28;20191;-78
2023/05/01 09:43:30;;;;;;;3.35;3.03;;;21.80;64.10;;;;;;5068310;28;20654;-78
2023/05/01 09:46:08;;;;;;;3.22;2.92;;;21.90;63.30;;;;;;5055587;28;20207;-78
2023/05/01 09:48:34;;;;;;;4.03;3.30;;;21.80;62.70;;;;;;5047065;28;20714;-78
2023/05/01 09:51:00;;;;;;;2.85;2.63;;;21.50;64.40;;;;;;5055369;28;20186;-78
2023/05/01 09:53:39;;;;;;;2.80;2.60;;;21.40;63.20;;;;;;5053463;28;20172;-78
2023/05/01 09:56:05;;;;;;;4.38;2.70;;;21.20;63.70;;;;;;5055169;28;20567;-78
2023/05/01 09:58:31;;;;;;;3.25;3.05;;;21.50;64.00;;;;;;5046930;28;20265;-78
2023/05/01 10:00:57;;;;;;;2.78;2.50;;;21.40;64.80;;;;;;5053895;28;20187;-78
2023/05/01 10:03:22;;;;;;;2.80;2.60;;;21.40;64.80;;;;;;5052128;28;20252;-79
2023/05/01 10:05:48;;;;;;;2.40;2.30;;;21.60;62.70;;;;;;5052252;28;20207;-79
2023/05/01 10:08:14;;;;;;;2.75;2.40;;;21.70;62.50;;;;;;5057537;28;20183;-79
2023/05/01 10:10:42;;;;;;;2.78;2.40;;;22.10;62.10;;;;;;5057971;28;20183;-76
2023/05/01 10:13:15;;;;;;;4.25;3.10;;;22.30;60.10;;;;;;5050887;28;20183;-76
2023/05/01 10:15:41;;;;;;;4.35;2.55;;;22.50;60.20;;;;;;5053556;28;20190;-77
2023/05/01 10:18:10;;;;;;;2.70;2.50;;;22.50;59.60;;;;;;5048239;28;20196;-77
2023/05/01 10:20:35;;;;;;;3.00;2.28;;;22.30;59.50;;;;;;5053816;28;20190;-77
2023/05/01 10:23:02;;;;;;;2.60;2.40;;;22.20;59.60;;;;;;5048531;28;20184;-77
2023/05/01 10:25:29;;;;;;;2.65;2.47;;;22.30;58.50;;;;;;5050126;28;20232;-76
2023/05/01 10:27:56;;;;;;;3.53;2.42;;;22.40;59.20;;;;;;5054514;28;20195;-76
2023/05/01 10:30:22;;;;;;;4.82;3.13;;;22.60;59.00;;;;;;5051525;28;20168;-77
2023/05/01 10:32:48;;;;;;;2.63;2.42;;;22.40;59.70;;;;;;5055533;28;20222;-77
2023/05/01 10:35:28;;;;;;;2.67;2.50;;;22.70;59.50;;;;;;5053152;28;20550;-77
2023/05/01 10:38:03;;;;;;;3.97;2.60;;;23.10;58.00;;;;;;5045993;28;20661;-76
2023/05/01 10:40:37;;;;;;;2.65;2.45;;;23.70;58.20;;;;;;5053137;28;20187;-78
2023/05/01 10:43:28;;;;;;;2.75;2.42;;;24.00;57.20;;;;;;5050222;28;20661;-77
2023/05/01 10:46:20;;;;;;;5.22;2.65;;;24.40;57.20;;;;;;5048542;28;20208;-78
2023/05/01 10:48:46;;;;;;;2.30;2.10;;;24.70;55.70;;;;;;5045492;28;20566;-78
2023/05/01 10:51:16;;;;;;;2.45;2.25;;;24.80;54.80;;;;;;5059503;28;20189;-77
2023/05/01 10:53:47;;;;;;;2.45;2.28;;;24.50;54.60;;;;;;5047802;28;20753;-77
2023/05/01 10:56:24;;;;;;;3.00;2.50;;;23.80;55.10;;;;;;5052179;28;20282;-77
2023/05/01 10:59:08;;;;;;;2.42;2.22;;;23.40;56.40;;;;;;5064951;28;20191;-78
2023/05/01 11:01:43;;;;;;;2.40;2.30;;;23.30;56.70;;;;;;5052143;28;20211;-76
2023/05/01 11:04:18;;;;;;;6.72;3.13;;;23.00;57.00;;;;;;5046407;28;20255;-77
2023/05/01 11:07:04;;;;;;;2.03;1.92;;;22.70;56.90;;;;;;5053330;28;20206;-76
2023/05/01 11:09:42;;;;;;;2.22;2.10;;;22.60;58.60;;;;;;5066043;28;20186;-76
2023/05/01 11:12:10;;;;;;;3.30;2.35;;;22.70;57.10;;;;;;5048308;28;20531;-75
2023/05/01 11:14:55;;;;;;;2.55;2.38;;;22.50;57.80;;;;;;5045031;28;20302;-76
2023/05/01 11:17:41;;;;;;;3.22;2.33;;;22.50;57.40;;;;;;5049094;28;20202;-76
2023/05/01 11:20:28;;;;;;;2.50;2.28;;;22.60;58.40;;;;;;5052245;28;20247;-76
2023/05/01 11:22:56;;;;;;;2.42;2.33;;;23.20;57.90;;;;;;5047537;28;20282;-76
2023/05/01 11:25:22;;;;;;;2.03;1.88;;;24.10;56.40;;;;;;5063188;28;20200;-76
2023/05/01 11:27:49;;;;;;;3.42;2.15;;;24.70;55.10;;;;;;5058293;28;20199;-76
2023/05/01 11:30:15;;;;;;;2.42;2.22;;;24.80;54.70;;;;;;5062296;28;20208;-75
2023/05/01 11:32:46;;;;;;;2.15;2.05;;;25.00;55.30;;;;;;5050045;28;20180;-76
2023/05/01 11:35:19;;;;;;;4.57;2.72;;;24.90;54.50;;;;;;5048663;28;20200;-78
2023/05/01 11:37:45;;;;;;;2.67;2.58;;;24.70;53.90;;;;;;5050845;28;20203;-74
2023/05/01 11:40:25;;;;;;;3.15;1.98;;;23.90;54.80;;;;;;5045163;28;20215;-75
2023/05/01 11:42:59;;;;;;;2.42;2.30;;;23.30;56.00;;;;;;5060706;28;20184;-75
2023/05/01 11:45:25;;;;;;;2.83;2.63;;;23.30;57.20;;;;;;5048445;28;20211;-77
2023/05/01 11:47:50;;;;;;;2.47;2.25;;;23.60;55.90;;;;;;5042836;28;20203;-75
2023/05/01 11:50:16;;;;;;;2.22;2.13;;;23.80;55.80;;;;;;5042915;28;20215;-76
2023/05/01 11:52:53;;;;;;;2.45;2.35;;;24.00;56.70;;;;;;5049754;28;20310;-78
2023/05/01 11:55:20;;;;;;;2.55;2.42;;;24.20;56.00;;;;;;5046727;28;20634;-75
2023/05/01 11:57:47;;;;;;;2.38;2.22;;;24.20;55.10;;;;;;5052105;28;20219;-75
2023/05/01 12:00:32;;;;;;;2.58;2.47;;;24.10;55.60;;;;;;5049222;28;20175;-76
2023/05/01 12:03:02;;;;;;;2.38;2.28;;;24.20;56.70;;;;;;5048185;28;20183;-75
2023/05/01 12:05:30;;;;;;;2.67;2.47;;;24.40;55.20;;;;;;5046453;28;20196;-75
2023/05/01 12:08:13;;;;;;;3.33;2.50;;;24.50;55.40;;;;;;5047955;28;20196;-76
2023/05/01 12:10:41;;;;;;;2.65;2.45;;;24.40;56.00;;;;;;5048450;28;20523;-76
2023/05/01 12:13:10;;;;;;;2.42;2.22;;;24.40;54.70;;;;;;5047084;28;20175;-76
2023/05/01 12:15:39;;;;;;;2.25;2.15;;;24.20;55.80;;;;;;5050535;28;20228;-76
2023/05/01 12:18:05;;;;;;;4.25;2.38;;;24.10;58.00;;;;;;5044511;28;20674;-75
2023/05/01 12:20:40;;;;;;;2.55;2.40;;;24.10;55.20;;;;;;5049499;28;20270;-76
2023/05/01 12:23:09;;;;;;;2.83;2.53;;;23.90;55.40;;;;;;5042766;28;20666;-76
2023/05/01 12:25:35;;;;;;;2.83;2.50;;;23.60;55.50;;;;;;5045587;28;20384;-75
2023/05/01 12:28:03;;;;;;;2.35;2.25;;;23.30;56.50;;;;;;5046815;28;20303;-76
2023/05/01 12:30:29;;;;;;;3.63;2.70;;;23.20;58.60;;;;;;5045137;28;20168;-76
2023/05/01 12:32:57;;;;;;;2.97;2.22;;;23.40;56.60;;;;;;5044738;28;20171;-76
2023/05/01 12:35:28;;;;;;;3.47;2.20;;;23.50;57.50;;;;;;5050604;28;20202;-75
2023/05/01 12:37:57;;;;;;;2.70;2.50;;;23.50;57.20;;;;;;5052646;28;20295;-75
2023/05/01 12:40:22;;;;;;;2.30;2.20;;;23.40;56.70;;;;;;5053364;28;20176;-75
2023/05/01 12:42:58;;;;;;;2.40;2.25;;;23.30;57.40;;;;;;5049288;28;20565;-76
2023/05/01 12:45:24;;;;;;;2.60;2.40;;;23.00;57.60;;;;;;5050634;28;20206;-75
2023/05/01 12:47:50;;;;;;;2.35;2.05;;;22.80;57.30;;;;;;5055880;28;20211;-75
2023/05/01 12:50:16;;;;;;;2.60;2.40;;;22.70;58.40;;;;;;5053735;28;20171;-76
2023/05/01 12:52:41;;;;;;;3.85;2.13;;;22.50;58.90;;;;;;5050762;28;20180;-75